Time;durP1;ratioP1;P1;durP2;ratioP2;P2;SDS_P1;SDS_P2;PMS_P1;PMS_P2;Temp;Humidity;BMP_temperature;BMP_pressure;BME280_temperature;BME280_humidity;BME280_pressure;Samples;Min_cycle;Max_cycle;Signal;HPM_P1;HPM_P2
2024/01/13 00:01:17;;;;;;;;;65.00;47.25;;;;;2.18;73.81;102739.44;4994676;28;47067;-40
2024/01/13 00:03:42;;;;;;;;;66.75;44.00;;;;;2.22;74.22;102743.69;4994888;28;45428;-40
2024/01/13 00:06:07;;;;;;;;;63.00;37.00;;;;;2.25;73.36;102737.50;4994899;28;45338;-39
2024/01/13 00:08:33;;;;;;;;;51.50;38.50;;;;;2.23;73.71;102732.31;4995122;28;45534;-41
2024/01/13 00:10:59;;;;;;;;;45.75;42.00;;;;;2.29;74.36;102730.41;4994958;28;45263;-41
2024/01/13 00:13:24;;;;;;;;;55.25;40.75;;;;;2.35;73.69;102728.44;4994738;28;45459;-40
2024/01/13 00:15:49;;;;;;;;;57.00;45.25;;;;;2.37;74.17;102728.41;4994917;28;45245;-41
2024/01/13 00:18:17;;;;;;;;;48.50;36.50;;;;;2.40;73.80;102726.56;4994979;28;45533;-41
2024/01/13 00:20:42;;;;;;;;;70.50;47.50;;;;;2.43;74.08;102712.44;4994505;28;47040;-41
2024/01/13 00:23:08;;;;;;;;;67.25;43.00;;;;;2.45;73.80;102719.41;4994865;28;45432;-40
2024/01/13 00:25:33;;;;;;;;;41.75;30.50;;;;;2.43;73.13;102710.69;4994887;28;45298;-41
2024/01/13 00:27:58;;;;;;;;;59.25;42.25;;;;;2.37;73.91;102695.13;4994884;28;45308;-41
2024/01/13 00:30:24;;;;;;;;;55.50;40.00;;;;;2.41;73.54;102703.78;4994231;28;46362;-40
2024/01/13 00:32:49;;;;;;;;;54.75;34.75;;;;;2.39;73.88;102695.91;4994617;28;45366;-41
2024/01/13 00:35:15;;;;;;;;;48.75;38.00;;;;;2.35;74.03;102691.66;4994873;28;45437;-40
2024/01/13 00:37:40;;;;;;;;;48.25;38.50;;;;;2.33;74.06;102693.50;4994911;28;45417;-41
2024/01/13 00:40:06;;;;;;;;;52.25;32.00;;;;;2.29;74.59;102696.25;4994515;28;46449;-41
2024/01/13 00:42:32;;;;;;;;;63.50;47.00;;;;;2.33;74.01;102690.00;4994366;28;45329;-40
2024/01/13 00:44:57;;;;;;;;;61.75;44.50;;;;;2.36;74.56;102689.88;4994379;28;45314;-40
2024/01/13 00:47:23;;;;;;;;;49.00;31.50;;;;;2.36;73.23;102697.78;4994363;28;45364;-40
2024/01/13 00:49:48;;;;;;;;;61.00;38.25;;;;;2.33;73.21;102685.63;4994068;28;48390;-41
2024/01/13 00:52:13;;;;;;;;;57.25;34.50;;;;;2.32;72.88;102691.78;4994243;28;45289;-40
2024/01/13 00:54:42;;;;;;;;;47.75;31.25;;;;;2.27;73.01;102687.53;4994450;28;45461;-40
2024/01/13 00:57:08;;;;;;;;;54.75;42.50;;;;;2.28;73.53;102694.53;4994643;28;45492;-41
2024/01/13 00:59:33;;;;;;;;;57.25;39.25;;;;;2.22;73.99;102691.16;4993952;28;45449;-40
2024/01/13 01:01:58;;;;;;;;;56.00;41.50;;;;;2.19;73.90;102688.66;4993769;28;45283;-40
2024/01/13 01:04:24;;;;;;;;;55.50;38.50;;;;;2.13;74.46;102680.94;4994144;28;45430;-40
2024/01/13 01:06:49;;;;;;;;;53.00;39.25;;;;;2.01;74.34;102673.41;4994287;28;45410;-41
2024/01/13 01:09:14;;;;;;;;;48.50;36.50;;;;;2.05;73.80;102688.19;4993942;28;45823;-41
2024/01/13 01:11:42;;;;;;;;;53.50;43.00;;;;;2.05;75.02;102693.44;4994230;28;45386;-40
2024/01/13 01:14:08;;;;;;;;;49.25;36.75;;;;;2.07;74.82;102696.88;5078868;27;45454;-41
2024/01/13 01:16:33;;;;;;;;;45.75;28.00;;;;;2.04;73.32;102689.09;4994340;28;45409;-39
2024/01/13 01:18:58;;;;;;;;;46.75;32.00;;;;;2.01;74.25;102689.16;4993767;28;45438;-41
2024/01/13 01:21:24;;;;;;;;;53.75;36.75;;;;;1.90;75.05;102680.75;4994315;28;45404;-41
2024/01/13 01:23:49;;;;;;;;;42.50;35.50;;;;;1.82;75.24;102686.22;4992915;28;45329;-42
2024/01/13 01:26:15;;;;;;;;;39.25;28.50;;;;;1.79;75.88;102682.81;4993987;28;45341;-41
2024/01/13 01:28:40;;;;;;;;;52.00;33.25;;;;;1.78;75.84;102683.72;4993535;28;46357;-41
2024/01/13 01:31:06;;;;;;;;;54.75;36.25;;;;;1.75;75.81;102690.75;4993948;28;45350;-40
2024/01/13 01:33:31;;;;;;;;;56.50;35.75;;;;;1.75;76.16;102695.16;4994008;28;45452;-39
2024/01/13 01:35:57;;;;;;;;;42.00;33.75;;;;;1.70;76.09;102705.78;4994134;27;45505;-41
2024/01/13 01:38:22;;;;;;;;;45.50;35.75;;;;;1.70;76.38;102690.03;5008896;28;47346;-41
2024/01/13 01:40:54;;;;;;;;;46.25;33.50;;;;;1.73;76.28;102694.34;4992701;28;45351;-40
2024/01/13 01:43:20;;;;;;;;;44.75;33.75;;;;;1.64;76.39;102676.22;4993912;28;45456;-41
2024/01/13 01:45:54;;;;;;;;;42.00;31.25;;;;;1.70;76.01;102700.53;4993736;27;45544;-42
2024/01/13 01:48:27;;;;;;;;;41.50;31.50;;;;;1.75;76.13;102697.78;4993281;28;45396;-39
2024/01/13 01:50:53;;;;;;;;;38.75;33.50;;;;;1.72;76.61;102693.47;4993518;28;45331;-39
2024/01/13 01:53:19;;;;;;;;;47.50;31.50;;;;;1.72;76.68;102695.22;4993526;28;45519;-41
2024/01/13 01:55:44;;;;;;;;;41.25;30.25;;;;;1.70;76.11;102692.66;4993711;28;45423;-39
2024/01/13 01:58:10;;;;;;;;;43.25;35.75;;;;;1.66;77.23;102684.91;4993354;28;47434;-39
2024/01/13 02:00:36;;;;;;;;;41.75;26.50;;;;;1.61;75.45;102674.56;4993405;28;45294;-40
2024/01/13 02:03:01;;;;;;;;;30.50;27.25;;;;;1.70;76.55;102678.69;4991517;28;45423;-40
2024/01/13 02:05:28;;;;;;;;;57.50;37.00;;;;;1.70;76.31;102670.81;4993661;28;45436;-40
2024/01/13 02:07:54;;;;;;;;;46.25;26.75;;;;;1.62;76.65;102663.16;4993259;28;46282;-40
2024/01/13 02:10:20;;;;;;;;;31.50;21.75;;;;;1.58;76.26;102658.88;4993129;28;45417;-42
2024/01/13 02:12:46;;;;;;;;;43.00;31.50;;;;;1.65;76.40;102678.81;4993370;28;45371;-46
2024/01/13 02:15:11;;;;;;;;;36.75;22.25;;;;;1.64;75.43;102668.34;4993517;28;45471;-41
2024/01/13 02:17:37;;;;;;;;;37.00;24.00;;;;;1.77;75.87;102679.34;4993340;28;45344;-40
2024/01/13 02:20:05;;;;;;;;;37.00;21.75;;;;;1.80;75.12;102668.78;4993139;28;45425;-41
2024/01/13 02:22:31;;;;;;;;;36.00;27.00;;;;;1.79;75.37;102659.19;4993306;28;45373;-39
2024/01/13 02:24:58;;;;;;;;;42.50;23.00;;;;;1.74;75.35;102651.47;4993140;28;45309;-41
2024/01/13 02:27:23;;;;;;;;;39.25;21.25;;;;;1.82;74.44;102659.97;4992944;28;47393;-40
2024/01/13 02:29:48;;;;;;;;;46.25;32.75;;;;;1.81;75.26;102655.59;4993004;28;45378;-41
2024/01/13 02:32:13;;;;;;;;;36.50;27.25;;;;;1.80;75.44;102656.53;4992966;28;45500;-40
2024/01/13 02:34:39;;;;;;;;;34.00;27.00;;;;;1.74;75.61;102661.97;4993373;28;45302;-40
2024/01/13 02:37:04;;;;;;;;;28.50;22.00;;;;;1.78;75.33;102658.34;4992632;28;47993;-46
2024/01/13 02:39:29;;;;;;;;;41.75;28.00;;;;;1.82;75.76;102656.50;4992715;28;45314;-39
2024/01/13 02:41:55;;;;;;;;;30.50;24.50;;;;;1.82;74.74;102654.72;4993003;28;45414;-40
2024/01/13 02:44:20;;;;;;;;;39.25;30.00;;;;;1.75;75.13;102643.53;4991555;28;45592;-40
2024/01/13 02:46:45;;;;;;;;;28.00;23.25;;;;;1.85;75.44;102662.50;4992683;28;45996;-40
2024/01/13 02:49:11;;;;;;;;;31.25;20.75;;;;;1.88;75.81;102664.19;4992389;28;45281;-41
2024/01/13 02:51:37;;;;;;;;;24.00;13.75;;;;;1.90;75.57;102658.00;4993216;28;45355;-40
2024/01/13 02:54:02;;;;;;;;;38.00;27.50;;;;;1.92;75.62;102656.16;4996152;28;45321;-41
2024/01/13 02:56:28;;;;;;;;;39.50;24.50;;;;;1.95;75.10;102655.25;4995578;28;46345;-41
2024/01/13 02:58:53;;;;;;;;;37.50;26.75;;;;;1.97;75.57;102648.16;4995452;28;45232;-40
2024/01/13 03:01:18;;;;;;;;;35.75;27.75;;;;;1.97;75.46;102640.28;4995779;28;45302;-40
2024/01/13 03:03:44;;;;;;;;;28.25;21.50;;;;;2.01;74.40;102639.28;4996075;28;45265;-39
2024/01/13 03:06:10;;;;;;;;;31.00;22.00;;;;;2.03;74.61;102631.41;4994238;28;47801;-41
2024/01/13 03:08:35;;;;;;;;;43.75;33.50;;;;;2.02;74.74;102635.75;4995810;28;45366;-40
2024/01/13 03:11:01;;;;;;;;;34.50;25.75;;;;;2.02;74.24;102634.91;4995865;28;45251;-40
2024/01/13 03:13:26;;;;;;;;;32.75;23.00;;;;;1.96;74.55;102625.44;4995907;28;45406;-40
2024/01/13 03:15:51;;;;;;;;;36.25;21.75;;;;;1.99;74.83;102625.38;4995327;28;46202;-39
2024/01/13 03:18:17;;;;;;;;;33.25;24.00;;;;;1.99;74.57;102614.88;4995314;28;45372;-40
2024/01/13 03:20:42;;;;;;;;;30.75;20.75;;;;;2.02;75.15;102617.38;4995680;28;45437;-39
2024/01/13 03:23:08;;;;;;;;;34.50;27.50;;;;;2.06;75.45;102610.28;4995900;28;45524;-40
2024/01/13 03:25:33;;;;;;;;;33.75;26.00;;;;;2.06;74.95;102605.03;4995325;28;45502;-38
2024/01/13 03:27:58;;;;;;;;;31.75;27.50;;;;;2.12;75.14;102597.00;4995367;28;45360;-40
2024/01/13 03:30:24;;;;;;;;;32.50;26.00;;;;;2.14;74.51;102595.16;4995144;28;45382;-40
2024/01/13 03:32:49;;;;;;;;;25.00;19.50;;;;;2.12;74.41;102589.13;4995758;28;45452;-40
2024/01/13 03:35:14;;;;;;;;;37.50;22.25;;;;;2.10;74.27;102589.13;4995239;28;45398;-40
2024/01/13 03:37:40;;;;;;;;;28.75;23.50;;;;;2.10;74.80;102593.53;4995195;28;45424;-40
2024/01/13 03:40:06;;;;;;;;;38.75;27.50;;;;;1.99;74.18;102578.13;4995368;28;45414;-40
2024/01/13 03:42:31;;;;;;;;;26.25;21.75;;;;;1.96;74.64;102588.72;4995434;28;45408;-40
2024/01/13 03:44:56;;;;;;;;;45.75;29.00;;;;;1.80;75.50;102574.31;4994663;28;45528;-40
2024/01/13 03:47:22;;;;;;;;;15.75;6.75;;;;;1.80;75.01;102574.31;4995438;28;45339;-39
2024/01/13 03:49:48;;;;;;;;;27.25;20.25;;;;;1.83;75.44;102548.00;4977727;28;45428;-40
2024/01/13 03:52:13;;;;;;;;;26.75;22.75;;;;;1.85;74.95;102554.91;4995644;28;45313;-41
2024/01/13 03:54:39;;;;;;;;;29.00;26.50;;;;;1.85;75.22;102560.16;5080337;27;46928;-40
2024/01/13 03:57:04;;;;;;;;;37.00;23.75;;;;;1.79;75.40;102543.75;4995132;28;45416;-41
2024/01/13 03:59:29;;;;;;;;;27.00;18.00;;;;;1.81;74.80;102558.53;4995028;28;45220;-39
2024/01/13 04:01:55;;;;;;;;;35.25;22.00;;;;;1.82;74.98;102565.50;4993980;28;45363;-39
2024/01/13 04:04:20;;;;;;;;;31.25;24.25;;;;;1.83;75.10;102569.00;4994088;28;46183;-40
2024/01/13 04:06:45;;;;;;;;;32.50;26.00;;;;;1.84;75.22;102557.59;4994916;28;45233;-41
2024/01/13 04:09:10;;;;;;;;;24.75;15.50;;;;;1.83;74.99;102554.09;4995125;28;45207;-40
2024/01/13 04:11:36;;;;;;;;;28.00;18.25;;;;;1.84;75.51;102557.59;4995195;28;45515;-40
2024/01/13 04:14:01;;;;;;;;;35.75;24.00;;;;;1.81;74.88;102547.16;4994580;28;45417;-39
2024/01/13 04:16:27;;;;;;;;;22.75;16.00;;;;;1.80;74.93;102545.47;4994590;28;45347;-40
2024/01/13 04:18:52;;;;;;;;;35.00;22.50;;;;;1.79;74.98;102546.38;4994782;28;45291;-41
2024/01/13 04:21:18;;;;;;;;;25.25;21.00;;;;;1.72;75.36;102540.44;4994857;28;45157;-39
2024/01/13 04:23:43;;;;;;;;;16.00;9.00;;;;;1.70;74.77;102537.88;4994610;28;45353;-40
2024/01/13 04:26:09;;;;;;;;;24.50;18.50;;;;;1.70;75.62;102532.63;4994645;28;45516;-39
2024/01/13 04:28:34;;;;;;;;;31.50;14.50;;;;;1.73;74.79;102539.56;4995006;28;45387;-42
2024/01/13 04:31:00;;;;;;;;;20.00;15.00;;;;;1.77;75.04;102546.44;4994876;28;45338;-41
2024/01/13 04:33:25;;;;;;;;;29.50;24.00;;;;;1.79;75.01;102543.75;4993288;28;47279;-39
2024/01/13 04:35:51;;;;;;;;;23.75;18.50;;;;;1.77;74.57;102540.28;4994668;28;45346;-41
2024/01/13 04:38:17;;;;;;;;;13.00;10.00;;;;;1.73;74.34;102550.91;4994635;28;45548;-41
2024/01/13 04:40:42;;;;;;;;;20.50;18.75;;;;;1.63;74.84;102549.44;4994619;28;45413;-40
2024/01/13 04:43:07;;;;;;;;;30.00;18.75;;;;;1.56;75.06;102547.03;4994505;28;45410;-38
2024/01/13 04:45:33;;;;;;;;;22.50;16.50;;;;;1.54;75.58;102543.59;4996287;27;45330;-40
2024/01/13 04:48:00;;;;;;;;;23.00;11.00;;;;;1.49;75.24;102547.22;4994379;28;45774;-40
2024/01/13 04:50:26;;;;;;;;;31.75;18.75;;;;;1.50;75.35;102543.69;4994770;28;45441;-39
2024/01/13 04:52:52;;;;;;;;;36.25;24.75;;;;;1.52;75.31;102542.78;4994308;28;46192;-39
2024/01/13 04:55:17;;;;;;;;;29.00;21.00;;;;;1.47;75.63;102527.19;4994214;28;45567;-39
2024/01/13 04:57:43;;;;;;;;;33.75;22.25;;;;;1.46;75.41;102525.47;4994643;28;45862;-40
2024/01/13 05:00:08;;;;;;;;;25.75;22.25;;;;;1.47;75.20;102527.19;4994360;28;45377;-40
2024/01/13 05:02:34;;;;;;;;;32.75;18.00;;;;;1.48;75.01;102529.78;4994227;28;46195;-40
2024/01/13 05:04:59;;;;;;;;;27.75;21.25;;;;;1.49;76.14;102533.25;4994161;28;45350;-41
2024/01/13 05:07:24;;;;;;;;;14.25;12.25;;;;;1.49;74.83;102528.88;4994308;28;45270;-40
2024/01/13 05:09:50;;;;;;;;;28.75;23.00;;;;;1.53;75.84;102527.00;4994554;28;45324;-38
2024/01/13 05:12:16;;;;;;;;;10.50;10.50;;;;;1.50;74.39;102504.34;4994405;28;46397;-40
2024/01/13 05:14:41;;;;;;;;;34.50;22.00;;;;;1.52;75.53;102514.81;4994105;28;45365;-40
2024/01/13 05:17:06;;;;;;;;;33.25;19.50;;;;;1.41;75.47;102494.13;4993083;28;45395;-40
2024/01/13 05:19:32;;;;;;;;;29.00;19.00;;;;;1.56;74.50;102510.31;4994225;28;45484;-40
2024/01/13 05:21:58;;;;;;;;;29.75;15.50;;;;;1.50;74.76;102500.88;5009066;28;47254;-38
2024/01/13 05:24:23;;;;;;;;;31.75;23.00;;;;;1.51;74.97;102497.34;4993949;28;45449;-41
2024/01/13 05:26:48;;;;;;;;;35.50;26.50;;;;;1.50;75.36;102501.72;4994099;28;45385;-40
2024/01/13 05:29:14;;;;;;;;;30.25;22.25;;;;;1.52;75.84;102504.31;4994368;28;45305;-39
2024/01/13 05:31:41;;;;;;;;;29.00;21.50;;;;;1.50;75.06;102496.47;4993822;28;46711;-41
2024/01/13 05:34:06;;;;;;;;;34.50;20.75;;;;;1.53;75.94;102497.31;4993974;28;45346;-41
2024/01/13 05:36:31;;;;;;;;;20.75;17.75;;;;;1.57;75.54;102497.16;4993851;28;45256;-40
2024/01/13 05:38:57;;;;;;;;;24.50;18.75;;;;;1.57;75.47;102483.19;4994215;28;45337;-39
2024/01/13 05:41:22;;;;;;;;;33.25;22.75;;;;;1.58;75.76;102474.41;4993692;28;50573;-39
2024/01/13 05:43:47;;;;;;;;;29.75;19.50;;;;;1.60;75.96;102481.34;4993679;28;45558;-40
2024/01/13 05:46:13;;;;;;;;;24.50;18.50;;;;;1.63;74.64;102481.22;4993695;28;45896;-40
2024/01/13 05:48:38;;;;;;;;;31.50;22.00;;;;;1.61;75.62;102480.44;4993814;28;45381;-40
2024/01/13 05:51:04;;;;;;;;;37.50;23.50;;;;;1.30;75.64;102424.56;4993499;28;46380;-40
2024/01/13 05:53:29;;;;;;;;;23.00;17.75;;;;;1.63;76.39;102481.22;4993641;28;45408;-40
2024/01/13 05:55:55;;;;;;;;;34.75;16.75;;;;;1.65;75.23;102478.59;4993539;28;45424;-40
2024/01/13 05:58:20;;;;;;;;;33.75;18.25;;;;;1.68;75.34;102474.06;4993905;28;45313;-40
2024/01/13 06:00:46;;;;;;;;;32.75;19.50;;;;;1.63;74.76;102460.25;4993173;28;46165;-40
2024/01/13 06:03:11;;;;;;;;;25.00;22.25;;;;;1.69;75.70;102474.97;4993405;28;45384;-40
2024/01/13 06:05:38;;;;;;;;;21.75;18.75;;;;;1.67;75.71;102469.75;4993875;28;45388;-40
2024/01/13 06:08:04;;;;;;;;;25.75;21.00;;;;;1.63;75.31;102457.63;4993629;28;45384;-40
2024/01/13 06:10:30;;;;;;;;;25.50;21.00;;;;;1.66;74.79;102464.56;4993260;28;46512;-40
2024/01/13 06:12:56;;;;;;;;;26.50;18.00;;;;;1.61;75.36;102456.81;4993306;28;45219;-41
2024/01/13 06:15:23;;;;;;;;;34.00;24.00;;;;;1.58;75.30;102458.69;4993144;28;45456;-40
2024/01/13 06:17:48;;;;;;;;;24.00;17.00;;;;;1.52;75.58;102457.13;4993397;28;45428;-41
2024/01/13 06:20:14;;;;;;;;;31.75;20.25;;;;;1.37;76.19;102434.81;4992945;28;45352;-39
2024/01/13 06:22:39;;;;;;;;;32.50;25.25;;;;;1.46;75.90;102452.03;4993059;28;45325;-40
2024/01/13 06:25:05;;;;;;;;;27.50;18.50;;;;;1.48;75.61;102442.38;4993150;28;45514;-40
2024/01/13 06:27:31;;;;;;;;;28.75;22.00;;;;;1.46;75.90;102439.78;4994547;28;45429;-40
2024/01/13 06:29:56;;;;;;;;;24.00;23.00;;;;;1.40;75.90;102420.78;4995637;28;45375;-40
2024/01/13 06:32:21;;;;;;;;;36.25;24.50;;;;;1.56;76.22;102443.00;4995855;28;45489;-38
2024/01/13 06:34:47;;;;;;;;;26.00;19.50;;;;;1.49;75.95;102431.81;4996096;28;45329;-39
2024/01/13 06:37:12;;;;;;;;;36.75;24.75;;;;;1.59;76.31;102448.13;4996122;28;45433;-39
2024/01/13 06:39:37;;;;;;;;;33.75;20.25;;;;;1.62;75.75;102436.69;4995895;28;46222;-40
2024/01/13 06:42:06;;;;;;;;;28.75;23.50;;;;;1.66;75.44;102448.81;4995950;28;45413;-40
2024/01/13 06:44:33;;;;;;;;;33.25;19.25;;;;;1.62;75.77;102448.03;4995699;28;45438;-40
2024/01/13 06:46:58;;;;;;;;;45.50;24.75;;;;;1.63;75.81;102456.78;4995983;28;45450;-40
2024/01/13 06:49:23;;;;;;;;;17.75;16.75;;;;;1.64;75.34;102448.84;4995470;28;45942;-39
2024/01/13 06:51:48;;;;;;;;;34.75;23.50;;;;;1.60;75.47;102444.63;5081008;27;46229;-40
2024/01/13 06:54:14;;;;;;;;;29.75;25.25;;;;;1.48;75.32;102437.13;4995924;28;45274;-40
2024/01/13 06:56:41;;;;;;;;;23.25;14.25;;;;;1.44;75.10;102453.88;4996091;28;45405;-39
2024/01/13 06:59:07;;;;;;;;;21.50;14.75;;;;;1.32;76.27;102451.59;4995862;28;46360;-39
2024/01/13 07:01:33;;;;;;;;;29.25;15.25;;;;;1.27;75.72;102448.25;4995570;28;45392;-39
2024/01/13 07:03:58;;;;;;;;;27.50;19.00;;;;;1.23;76.32;102448.34;4995755;28;45413;-38
2024/01/13 07:06:24;;;;;;;;;28.50;21.50;;;;;1.19;76.56;102445.88;4995846;28;45811;-39
2024/01/13 07:08:50;;;;;;;;;26.50;16.00;;;;;1.17;76.36;102445.88;4995399;28;45446;-39
2024/01/13 07:11:15;;;;;;;;;12.75;8.00;;;;;1.12;75.61;102441.69;4995593;28;45290;-39
2024/01/13 07:13:44;;;;;;;;;23.75;16.50;;;;;1.19;75.93;102443.25;4995573;28;45313;-42
2024/01/13 07:16:11;;;;;;;;;33.00;21.00;;;;;1.23;76.32;102445.72;4995604;28;45450;-39
2024/01/13 07:18:36;;;;;;;;;17.75;16.50;;;;;1.14;75.83;102430.28;4995561;28;46527;-39
2024/01/13 07:21:02;;;;;;;;;28.75;20.75;;;;;1.14;76.31;102435.50;4995276;28;45456;-38
2024/01/13 07:23:29;;;;;;;;;24.75;19.50;;;;;1.18;76.25;102442.38;4995337;28;45412;-40
2024/01/13 07:25:55;;;;;;;;;20.00;18.00;;;;;1.13;76.22;102433.78;4995555;28;45340;-40
2024/01/13 07:28:20;;;;;;;;;18.00;12.00;;;;;1.19;75.85;102445.88;4995276;28;46110;-40
2024/01/13 07:30:46;;;;;;;;;24.25;19.50;;;;;1.12;76.57;102428.59;4995393;28;45321;-40
2024/01/13 07:33:12;;;;;;;;;29.50;24.00;;;;;1.17;75.97;102437.16;4995232;28;45423;-40
2024/01/13 07:35:37;;;;;;;;;20.50;14.00;;;;;1.13;76.40;102432.91;4995494;28;45434;-39
2024/01/13 07:38:03;;;;;;;;;32.50;18.75;;;;;1.00;76.34;102429.78;4994702;28;47893;-37
2024/01/13 07:40:28;;;;;;;;;35.00;21.25;;;;;1.06;76.26;102439.25;4994254;28;45250;-40
2024/01/13 07:42:54;;;;;;;;;28.25;18.25;;;;;1.11;76.00;102434.75;4995412;28;45262;-40
2024/01/13 07:45:19;;;;;;;;;22.75;20.00;;;;;1.08;76.29;102429.56;4995583;28;45396;-39
2024/01/13 07:47:46;;;;;;;;;26.25;14.25;;;;;1.08;76.26;102426.97;4994968;28;45373;-40
2024/01/13 07:50:11;;;;;;;;;23.25;15.00;;;;;1.10;75.90;102441.75;4995068;28;45461;-40
2024/01/13 07:52:37;;;;;;;;;36.50;21.75;;;;;1.08;75.66;102434.81;4995192;28;45533;-40
2024/01/13 07:55:02;;;;;;;;;24.00;13.75;;;;;1.02;75.55;102438.47;4995444;28;45370;-38
2024/01/13 07:57:29;;;;;;;;;11.50;9.50;;;;;1.00;75.09;102435.03;4995038;28;46498;-37
2024/01/13 07:59:55;;;;;;;;;17.25;16.00;;;;;1.02;75.45;102435.00;4994746;28;45434;-37
2024/01/13 08:02:20;;;;;;;;;18.75;9.75;;;;;0.71;75.70;102391.31;4994923;28;45327;-41
2024/01/13 08:04:45;;;;;;;;;16.50;12.00;;;;;0.97;75.68;102403.69;4995176;28;45434;-41
2024/01/13 08:07:11;;;;;;;;;19.00;15.75;;;;;1.14;75.67;102414.53;4994863;28;48879;-41
2024/01/13 08:09:37;;;;;;;;;28.25;17.00;;;;;0.86;75.88;102361.22;4994992;28;45368;-39
2024/01/13 08:12:03;;;;;;;;;25.50;20.25;;;;;1.21;75.59;102408.19;4995025;28;45251;-39
2024/01/13 08:14:28;;;;;;;;;24.25;16.50;;;;;1.13;74.81;102390.97;5010403;28;45612;-39
2024/01/13 08:16:53;;;;;;;;;16.75;10.75;;;;;1.19;74.91;102398.69;4994669;28;46272;-39
2024/01/13 08:19:19;;;;;;;;;21.00;19.00;;;;;1.23;74.99;102406.41;4995059;28;45333;-40
2024/01/13 08:21:44;;;;;;;;;6.00;6.00;;;;;1.27;75.15;102408.94;4994981;28;45393;-39
2024/01/13 08:24:10;;;;;;;;;30.00;21.00;;;;;1.20;75.54;102398.63;4995039;28;45409;-39
2024/01/13 08:26:37;;;;;;;;;28.50;24.25;;;;;1.13;75.87;102397.06;4994719;28;45300;-39
2024/01/13 08:29:02;;;;;;;;;26.75;18.50;;;;;1.15;75.44;102390.03;4994710;28;45374;-40
2024/01/13 08:31:28;;;;;;;;;27.75;18.00;;;;;1.23;76.16;102405.53;4994718;28;45247;-39
2024/01/13 08:33:54;;;;;;;;;32.50;18.75;;;;;1.28;76.23;102410.66;4994724;28;45326;-40
2024/01/13 08:36:19;;;;;;;;;25.25;18.00;;;;;1.30;75.97;102395.72;4994185;28;46012;-39
2024/01/13 08:38:45;;;;;;;;;25.75;19.00;;;;;1.30;75.85;102401.81;4994768;28;45460;-40
2024/01/13 08:41:13;;;;;;;;;36.50;21.50;;;;;1.17;75.96;102388.22;5079523;27;45349;-39
2024/01/13 08:43:40;;;;;;;;;22.25;18.00;;;;;1.15;76.34;102394.44;4994875;28;45466;-38
2024/01/13 08:46:06;;;;;;;;;23.50;21.25;;;;;1.16;76.83;102398.75;5079270;27;46586;-38
2024/01/13 08:48:31;;;;;;;;;23.25;18.25;;;;;1.17;76.41;102396.09;4993782;28;45396;-38
2024/01/13 08:50:57;;;;;;;;;30.00;25.50;;;;;0.89;76.93;102355.91;4994434;28;45514;-39
2024/01/13 08:53:22;;;;;;;;;34.75;26.50;;;;;1.28;76.30;102401.03;4993332;28;45331;-39
2024/01/13 08:55:48;;;;;;;;;27.00;23.50;;;;;1.34;76.56;102410.44;4994097;28;45476;-40
2024/01/13 08:58:13;;;;;;;;;30.25;19.00;;;;;1.24;75.95;102410.72;4993914;28;45323;-40
2024/01/13 09:00:38;;;;;;;;;31.75;22.75;;;;;1.21;75.74;102418.69;4994160;28;45425;-40
2024/01/13 09:03:04;;;;;;;;;20.75;15.00;;;;;1.20;75.73;102422.22;4994479;28;45377;-40
2024/01/13 09:05:29;;;;;;;;;21.50;13.00;;;;;1.20;75.58;102419.59;4994150;28;46201;-40
2024/01/13 09:07:55;;;;;;;;;24.25;18.50;;;;;1.25;75.50;102427.31;4994023;28;45463;-40
2024/01/13 09:10:20;;;;;;;;;26.50;16.00;;;;;1.23;75.78;102427.38;4994197;28;45372;-40
2024/01/13 09:12:46;;;;;;;;;24.25;12.75;;;;;1.27;75.19;102440.41;4994446;28;45421;-40
2024/01/13 09:15:13;;;;;;;;;23.00;15.50;;;;;1.29;76.06;102446.44;4994106;28;47121;-40
2024/01/13 09:17:39;;;;;;;;;28.25;13.00;;;;;1.31;74.85;102450.75;4994020;28;45369;-40
2024/01/13 09:20:05;;;;;;;;;12.75;11.50;;;;;1.31;75.01;102442.03;4993969;28;45643;-41
2024/01/13 09:22:30;;;;;;;;;26.50;17.50;;;;;1.23;75.41;102419.50;4994314;28;45959;-39
2024/01/13 09:24:56;;;;;;;;;24.25;18.00;;;;;1.34;74.58;102442.78;4993876;28;45347;-39
2024/01/13 09:27:22;;;;;;;;;23.75;17.50;;;;;1.28;74.39;102431.63;4993707;28;45408;-40
2024/01/13 09:29:47;;;;;;;;;26.75;18.50;;;;;1.27;74.26;102438.63;4993942;28;45403;-40
2024/01/13 09:32:13;;;;;;;;;25.50;19.50;;;;;1.27;74.44;102441.25;4993817;28;45509;-39
2024/01/13 09:34:38;;;;;;;;;28.00;17.00;;;;;1.24;74.37;102441.34;4993984;28;45310;-40
2024/01/13 09:37:03;;;;;;;;;23.50;17.00;;;;;1.19;74.41;102433.59;4993292;28;45358;-39
2024/01/13 09:39:29;;;;;;;;;24.00;16.50;;;;;1.21;74.81;102429.16;4993881;28;45393;-40
2024/01/13 09:41:55;;;;;;;;;25.50;19.50;;;;;1.21;74.88;102421.31;4994038;28;45287;-39
2024/01/13 09:44:32;;;;;;;;;23.25;19.00;;;;;1.33;74.11;102427.09;4993090;28;46709;-40
2024/01/13 09:46:59;;;;;;;;;31.50;21.25;;;;;1.37;73.93;102432.19;4993706;28;45385;-40
2024/01/13 09:49:28;;;;;;;;;20.00;17.00;;;;;1.42;73.67;102437.31;4993420;28;45290;-40
2024/01/13 09:51:54;;;;;;;;;29.50;15.50;;;;;1.22;74.03;102407.31;4993961;28;45854;-40
2024/01/13 09:54:25;;;;;;;;;24.50;17.00;;;;;1.40;73.97;102441.75;4993442;28;45372;-39
2024/01/13 09:56:51;;;;;;;;;18.75;13.50;;;;;1.49;73.86;102458.06;4993349;28;45500;-38
2024/01/13 09:59:18;;;;;;;;;25.25;21.50;;;;;1.47;73.65;102461.63;4993696;28;45226;-39
2024/01/13 10:01:43;;;;;;;;;33.75;20.00;;;;;1.43;73.69;102466.13;4992701;28;45333;-40
2024/01/13 10:04:09;;;;;;;;;23.50;18.00;;;;;1.40;73.45;102452.25;4993187;28;46654;-40
2024/01/13 10:06:36;;;;;;;;;26.75;19.75;;;;;1.44;73.59;102461.72;4992342;28;45204;-39
2024/01/13 10:09:03;;;;;;;;;17.50;9.50;;;;;1.47;73.60;102469.47;4993412;28;45449;-40
2024/01/13 10:11:28;;;;;;;;;18.50;15.75;;;;;1.48;73.55;102464.22;4993540;28;45538;-40
2024/01/13 10:14:07;;;;;;;;;19.50;14.50;;;;;1.48;73.24;102453.72;4992682;28;45458;-39
2024/01/13 10:16:34;;;;;;;;;21.75;17.00;;;;;1.48;73.10;102458.97;4993163;28;45406;-41
2024/01/13 10:19:07;;;;;;;;;23.50;17.50;;;;;1.46;73.20;102450.28;4993186;28;45336;-41
2024/01/13 10:21:35;;;;;;;;;29.00;20.50;;;;;1.47;73.74;102440.63;4993520;28;45392;-39
2024/01/13 10:24:01;;;;;;;;;25.00;20.00;;;;;1.54;73.17;102447.41;4993126;28;46366;-40
2024/01/13 10:26:29;;;;;;;;;36.00;26.00;;;;;1.58;73.05;102446.41;4992992;28;45250;-39
2024/01/13 10:28:56;;;;;;;;;23.50;21.50;;;;;1.63;72.78;102443.66;4993154;28;45413;-39
2024/01/13 10:31:22;;;;;;;;;23.50;20.00;;;;;1.31;72.60;102379.97;4993289;28;45270;-40
2024/01/13 10:33:48;;;;;;;;;27.25;15.75;;;;;1.56;73.05;102429.88;4992954;28;46156;-39
2024/01/13 10:36:20;;;;;;;;;32.50;20.00;;;;;1.41;73.52;102401.50;4992958;28;45388;-39
2024/01/13 10:38:46;;;;;;;;;24.00;19.00;;;;;1.43;73.12;102389.19;4993012;28;45521;-40
2024/01/13 10:41:11;;;;;;;;;28.25;19.00;;;;;1.45;73.53;102401.34;4993273;28;45609;-39
2024/01/13 10:43:41;;;;;;;;;28.00;18.25;;;;;1.45;73.64;102408.38;4992921;28;45438;-39
2024/01/13 10:46:11;;;;;;;;;23.75;18.50;;;;;1.56;73.45;102411.53;4992872;28;45274;-39
2024/01/13 10:48:43;;;;;;;;;29.50;26.25;;;;;1.53;73.50;102411.63;4992649;28;45399;-40
2024/01/13 10:51:23;;;;;;;;;33.00;22.50;;;;;1.51;73.54;102402.91;4993146;28;45518;-40
2024/01/13 10:53:51;;;;;;;;;23.25;21.25;;;;;1.49;73.44;102399.50;4992489;28;45547;-41
2024/01/13 10:56:16;;;;;;;;;31.25;21.50;;;;;1.49;73.49;102389.00;4992641;28;45468;-40
2024/01/13 10:58:45;;;;;;;;;36.50;32.00;;;;;1.48;73.83;102380.28;4992709;28;45418;-40
2024/01/13 11:01:11;;;;;;;;;33.75;27.00;;;;;1.57;73.67;102376.50;4992733;28;45521;-40
2024/01/13 11:03:38;;;;;;;;;26.75;21.25;;;;;1.57;73.79;102368.66;4992317;28;45315;-40
2024/01/13 11:06:04;;;;;;;;;39.00;27.00;;;;;1.57;73.82;102352.91;4992381;28;45367;-39
2024/01/13 11:08:30;;;;;;;;;31.50;23.50;;;;;1.58;73.49;102352.00;4992466;28;45328;-40
2024/01/13 11:10:57;;;;;;;;;22.50;17.50;;;;;1.57;73.70;102360.78;4992794;28;45402;-40